YVT weather

Buffalo Narrows Airport
Buffalo Narrows, Saskatchewan, Canada

Public forecast

Using degrees Celsius for public forecast. Weather courtesy of forecast.io.

METAR (pilot weather report)

Report is more than 6 hours old.

Retrieved 2019/04/25 04:00 UTC (8 hours ago):

CYVT 250400Z 32008KT 15SM SCT085 BKN120 BKN170 BKN230 05/M04 A2982 RMK AC3AC2AC1CI1 LAST STFD OBS/NXT 251200 UTC SLP115

TAF (pilot weather forecast)

Forecast is more than 6 hours old.

Retrieved 2019/04/25 01:00 UTC (11 hours ago):

TAF CYVT 250038Z 2501/2504 30012KT P6SM BKN080 OVC120 TEMPO 2501/2504 P6SM -SHRA BKN060 RMK NXT FCST WILL BE ISSUED AT 251345Z